Time;durP1;ratioP1;P1;durP2;ratioP2;P2;SDS_P1;SDS_P2;PMS_P1;PMS_P2;Temp;Humidity;BMP_temperature;BMP_pressure;BME280_temperature;BME280_humidity;BME280_pressure;Samples;Min_cycle;Max_cycle;Signal;HPM_P1;HPM_P2
2021/06/06 00:01:17;;;;;;;53.72;45.67;;;18.50;99.90;;;;;;5130292;27;20034;-44
2021/06/06 00:03:49;;;;;;;55.50;46.42;;;18.50;99.90;;;;;;5119616;27;20032;-44
2021/06/06 00:06:21;;;;;;;55.90;48.30;;;18.50;99.90;;;;;;5120328;27;20035;-45
2021/06/06 00:08:47;;;;;;;53.42;45.50;;;18.50;99.90;;;;;;5129282;27;20042;-43
2021/06/06 00:11:19;;;;;;;52.85;45.22;;;18.50;99.90;;;;;;5129844;27;20110;-45
2021/06/06 00:13:45;;;;;;;55.28;46.55;;;18.40;99.90;;;;;;5129403;27;20083;-43
2021/06/06 00:16:22;;;;;;;54.38;46.30;;;18.40;99.90;;;;;;5130646;27;20076;-44
2021/06/06 00:18:47;;;;;;;48.35;42.17;;;18.40;99.90;;;;;;5130489;27;20481;-46
2021/06/06 00:21:13;;;;;;;54.60;46.40;;;18.40;99.90;;;;;;5129919;27;20027;-43
2021/06/06 00:23:38;;;;;;;53.80;45.65;;;18.40;99.90;;;;;;5128960;27;20438;-45
2021/06/06 00:26:06;;;;;;;55.08;45.50;;;18.40;99.90;;;;;;5129985;27;20058;-44
2021/06/06 00:28:32;;;;;;;52.00;45.67;;;18.30;99.90;;;;;;5130307;27;20019;-46
2021/06/06 00:30:59;;;;;;;60.60;46.25;;;18.40;99.90;;;;;;5128042;27;20034;-45
2021/06/06 00:33:24;;;;;;;59.10;46.33;;;18.40;99.90;;;;;;5125686;27;20373;-45
2021/06/06 00:35:50;;;;;;;49.17;43.75;;;18.30;99.90;;;;;;5113617;27;20020;-44
2021/06/06 00:38:16;;;;;;;48.25;43.00;;;18.40;99.90;;;;;;5129362;27;20050;-45
2021/06/06 00:40:42;;;;;;;55.78;46.00;;;18.40;99.90;;;;;;5129489;27;20095;-44
2021/06/06 00:43:07;;;;;;;46.30;41.17;;;18.30;99.90;;;;;;5128151;27;20441;-44
2021/06/06 00:45:35;;;;;;;48.88;43.45;;;18.30;99.90;;;;;;5130227;27;20049;-43
2021/06/06 00:48:01;;;;;;;54.03;44.28;;;18.30;99.90;;;;;;5130291;27;20038;-45
2021/06/06 00:50:42;;;;;;;50.88;44.85;;;18.30;99.90;;;;;;5129422;27;20027;-45
2021/06/06 00:53:14;;;;;;;47.30;42.10;;;18.30;99.90;;;;;;5130014;27;20023;-45
2021/06/06 00:55:40;;;;;;;51.83;43.47;;;18.30;99.90;;;;;;5129886;27;20026;-45
2021/06/06 00:58:11;;;;;;;46.30;41.10;;;18.30;99.90;;;;;;5115144;27;20019;-43
2021/06/06 01:00:38;;;;;;;52.85;44.45;;;18.30;99.90;;;;;;5122711;27;20031;-44
2021/06/06 01:03:05;;;;;;;50.60;42.90;;;18.30;99.90;;;;;;5128202;27;20146;-44
2021/06/06 01:05:49;;;;;;;49.95;42.55;;;18.30;99.90;;;;;;5109385;27;20023;-45
2021/06/06 01:08:18;;;;;;;48.03;40.25;;;18.30;99.90;;;;;;5128499;27;20027;-45
2021/06/06 01:10:45;;;;;;;44.90;39.17;;;18.20;99.90;;;;;;5128784;27;20054;-44
2021/06/06 01:13:20;;;;;;;43.42;38.78;;;18.10;99.90;;;;;;5129368;27;20268;-46
2021/06/06 01:15:50;;;;;;;45.97;38.50;;;18.10;99.90;;;;;;5129274;27;20332;-48
2021/06/06 01:18:28;;;;;;;40.55;36.15;;;18.10;99.90;;;;;;5129421;27;20072;-45
2021/06/06 01:21:22;;;;;;;42.70;35.47;;;18.10;99.90;;;;;;5128228;27;20031;-45
2021/06/06 01:24:12;;;;;;;41.85;37.22;;;18.00;99.90;;;;;;5127551;27;20429;-43
2021/06/06 01:26:56;;;;;;;38.83;34.65;;;18.00;99.90;;;;;;5129008;27;20027;-43
2021/06/06 01:29:34;;;;;;;41.20;36.35;;;18.00;99.90;;;;;;5128152;27;20369;-44
2021/06/06 01:32:20;;;;;;;41.17;36.80;;;18.00;99.90;;;;;;5127528;27;20280;-43
2021/06/06 01:35:11;;;;;;;41.45;36.83;;;17.90;99.90;;;;;;5115844;27;20568;-43
2021/06/06 01:37:52;;;;;;;40.80;36.35;;;17.90;99.90;;;;;;5082235;28;20111;-44
2021/06/06 01:40:23;;;;;;;43.50;38.33;;;17.80;99.90;;;;;;5087726;28;20086;-44
2021/06/06 01:42:53;;;;;;;41.38;36.88;;;17.80;99.90;;;;;;5087874;28;20550;-46
2021/06/06 01:45:27;;;;;;;42.80;36.13;;;17.80;99.90;;;;;;5088005;28;20447;-44
2021/06/06 01:47:58;;;;;;;38.03;34.00;;;17.80;99.90;;;;;;5088309;28;20088;-43
2021/06/06 01:50:33;;;;;;;41.03;36.00;;;17.80;99.90;;;;;;5086979;28;20050;-43
2021/06/06 01:53:00;;;;;;;39.47;35.38;;;17.70;99.90;;;;;;5087748;28;20087;-43
2021/06/06 01:55:31;;;;;;;40.80;35.75;;;17.80;99.90;;;;;;5087716;28;20024;-45
2021/06/06 01:58:00;;;;;;;39.72;35.20;;;17.70;99.90;;;;;;5086769;28;20023;-43
2021/06/06 02:00:33;;;;;;;41.40;36.92;;;17.70;99.90;;;;;;5119189;27;20115;-45
2021/06/06 02:02:59;;;;;;;39.28;34.78;;;17.70;99.90;;;;;;5127180;27;20027;-43
2021/06/06 02:05:24;;;;;;;41.88;36.08;;;17.70;99.90;;;;;;5110514;27;20114;-46
2021/06/06 02:07:51;;;;;;;39.60;35.30;;;17.70;99.90;;;;;;5124135;27;20031;-43
2021/06/06 02:10:35;;;;;;;40.03;35.67;;;17.60;99.90;;;;;;5127769;27;20095;-43
2021/06/06 02:13:20;;;;;;;39.08;34.70;;;17.70;99.90;;;;;;5128332;27;20264;-46
2021/06/06 02:15:49;;;;;;;36.15;31.70;;;17.60;99.90;;;;;;5128514;27;20019;-45
2021/06/06 02:18:15;;;;;;;36.50;32.70;;;17.70;99.90;;;;;;5128652;27;20038;-43
2021/06/06 02:20:44;;;;;;;36.78;32.90;;;17.70;99.90;;;;;;5127649;28;20034;-44
2021/06/06 02:23:11;;;;;;;38.00;31.27;;;17.70;99.90;;;;;;5126931;28;20030;-43
2021/06/06 02:25:38;;;;;;;37.38;33.13;;;17.60;99.90;;;;;;5128335;27;20022;-44
2021/06/06 02:28:23;;;;;;;34.80;31.05;;;17.70;99.90;;;;;;5128471;27;20027;-44
2021/06/06 02:31:03;;;;;;;37.40;33.38;;;17.60;99.90;;;;;;5127648;27;20205;-44
2021/06/06 02:33:49;;;;;;;33.65;30.00;;;17.60;99.90;;;;;;5125081;27;20110;-44
2021/06/06 02:36:18;;;;;;;34.47;29.08;;;17.70;99.90;;;;;;5117887;28;20189;-44
2021/06/06 02:38:50;;;;;;;34.90;30.85;;;17.60;99.90;;;;;;5128560;27;20019;-43
2021/06/06 02:41:40;;;;;;;36.35;30.65;;;17.60;99.90;;;;;;5128105;27;20042;-46
2021/06/06 02:44:14;;;;;;;33.50;29.92;;;17.60;99.90;;;;;;5128998;27;20110;-44
2021/06/06 02:46:41;;;;;;;34.88;31.15;;;17.60;99.90;;;;;;5128423;27;20041;-44
2021/06/06 02:49:11;;;;;;;33.58;29.77;;;17.60;99.90;;;;;;5127515;27;20453;-43
2021/06/06 02:51:43;;;;;;;38.47;31.63;;;17.60;99.90;;;;;;5126611;27;20074;-44
2021/06/06 02:54:15;;;;;;;33.38;29.67;;;17.60;99.90;;;;;;5128149;27;20026;-44
2021/06/06 02:56:47;;;;;;;33.00;29.55;;;17.50;99.90;;;;;;5128081;27;20042;-43
2021/06/06 02:59:23;;;;;;;32.25;28.95;;;17.60;99.90;;;;;;5120496;27;20019;-44
2021/06/06 03:01:54;;;;;;;35.50;31.67;;;17.50;99.90;;;;;;5113385;28;20036;-44
2021/06/06 03:04:23;;;;;;;34.80;31.05;;;17.50;99.90;;;;;;5098109;28;20027;-44
2021/06/06 03:07:11;;;;;;;30.92;27.73;;;17.60;99.90;;;;;;5100901;28;20035;-44
2021/06/06 03:09:37;;;;;;;33.70;30.00;;;17.60;99.90;;;;;;5098966;28;20123;-43
2021/06/06 03:12:07;;;;;;;32.55;29.02;;;17.50;99.90;;;;;;5099823;28;20090;-43
2021/06/06 03:14:37;;;;;;;34.95;30.67;;;17.50;99.90;;;;;;5100262;28;20024;-43
2021/06/06 03:17:27;;;;;;;36.55;32.05;;;17.60;99.90;;;;;;5099951;28;20111;-44
2021/06/06 03:19:56;;;;;;;34.55;30.30;;;17.50;99.90;;;;;;5087844;28;20111;-43
2021/06/06 03:22:29;;;;;;;32.15;28.67;;;17.60;99.90;;;;;;5099917;28;20031;-43
2021/06/06 03:25:04;;;;;;;32.20;28.77;;;17.60;99.90;;;;;;5100396;28;20020;-43
2021/06/06 03:27:40;;;;;;;32.10;28.63;;;17.60;99.90;;;;;;5099425;28;20024;-44
2021/06/06 03:30:22;;;;;;;30.58;27.45;;;17.60;99.90;;;;;;5097449;28;20508;-44
2021/06/06 03:32:49;;;;;;;35.50;31.70;;;17.60;99.90;;;;;;5099414;28;20076;-44
2021/06/06 03:35:15;;;;;;;33.63;30.13;;;17.60;99.90;;;;;;5102502;27;20666;-43
2021/06/06 03:37:40;;;;;;;33.92;30.30;;;17.50;99.90;;;;;;5102813;27;20040;-43
2021/06/06 03:40:09;;;;;;;35.55;31.15;;;17.50;99.90;;;;;;5097492;27;20469;-44
2021/06/06 03:42:37;;;;;;;34.00;30.42;;;17.60;99.90;;;;;;5101417;28;20215;-44
2021/06/06 03:45:08;;;;;;;36.65;31.90;;;17.50;99.90;;;;;;5102011;28;20432;-47
2021/06/06 03:47:34;;;;;;;35.55;31.60;;;17.60;99.90;;;;;;5099308;28;20388;-45
2021/06/06 03:50:00;;;;;;;42.63;34.55;;;17.60;99.90;;;;;;5099118;28;20360;-44
2021/06/06 03:52:26;;;;;;;38.60;31.90;;;17.60;99.90;;;;;;5100633;28;20032;-44
2021/06/06 03:54:53;;;;;;;40.30;33.85;;;17.60;99.90;;;;;;5099095;28;20038;-43
2021/06/06 03:57:19;;;;;;;44.70;38.03;;;17.60;99.90;;;;;;5100128;28;20073;-43
2021/06/06 03:59:45;;;;;;;43.72;36.88;;;17.60;99.90;;;;;;5099155;28;20416;-44
2021/06/06 04:02:10;;;;;;;43.28;37.53;;;17.70;99.90;;;;;;5098174;28;20070;-43
2021/06/06 04:04:36;;;;;;;44.05;37.92;;;17.70;99.90;;;;;;5097458;27;20024;-43
2021/06/06 04:07:02;;;;;;;46.38;38.55;;;17.70;99.90;;;;;;5103752;27;20085;-44
2021/06/06 04:09:27;;;;;;;48.72;41.28;;;17.70;99.90;;;;;;5098618;28;20394;-44
2021/06/06 04:11:53;;;;;;;54.20;42.85;;;17.70;99.90;;;;;;5099383;28;20018;-43
2021/06/06 04:14:18;;;;;;;45.38;37.65;;;17.70;99.90;;;;;;5100883;28;20027;-44
2021/06/06 04:16:44;;;;;;;50.33;39.65;;;17.80;99.90;;;;;;5099060;28;20542;-46
2021/06/06 04:19:10;;;;;;;51.22;41.42;;;17.80;99.90;;;;;;5098457;28;20289;-46
2021/06/06 04:21:36;;;;;;;48.75;40.25;;;17.80;99.90;;;;;;5093454;28;20036;-44
2021/06/06 04:24:02;;;;;;;51.63;41.85;;;17.80;99.90;;;;;;5089682;28;20035;-44
2021/06/06 04:26:28;;;;;;;51.03;42.72;;;17.90;99.90;;;;;;5088420;28;20020;-44
2021/06/06 04:28:54;;;;;;;50.90;41.20;;;17.90;99.90;;;;;;5089385;28;20039;-44
2021/06/06 04:31:20;;;;;;;52.72;42.38;;;17.90;99.90;;;;;;5088931;28;20039;-44
2021/06/06 04:33:46;;;;;;;54.40;43.45;;;17.90;99.90;;;;;;5087933;28;20384;-44
2021/06/06 04:36:11;;;;;;;57.20;43.90;;;17.90;99.90;;;;;;5118506;27;20106;-44
2021/06/06 04:38:37;;;;;;;62.28;48.90;;;17.90;99.90;;;;;;5128752;27;20023;-47
2021/06/06 04:41:06;;;;;;;61.78;47.70;;;18.00;99.90;;;;;;5129429;27;20551;-45
2021/06/06 04:43:32;;;;;;;53.70;44.15;;;18.00;99.90;;;;;;5128835;27;20033;-45
2021/06/06 04:45:58;;;;;;;56.30;46.05;;;18.00;99.90;;;;;;5130179;27;20106;-45
2021/06/06 04:48:31;;;;;;;56.08;44.17;;;18.00;99.90;;;;;;5110507;27;20037;-46
2021/06/06 04:50:59;;;;;;;51.38;40.90;;;18.00;99.90;;;;;;5099107;28;20023;-44
2021/06/06 04:53:25;;;;;;;60.33;45.95;;;18.10;99.90;;;;;;5098060;28;20386;-45
2021/06/06 04:55:52;;;;;;;54.22;43.60;;;18.10;99.90;;;;;;5098421;28;20026;-45
2021/06/06 04:58:20;;;;;;;62.17;48.53;;;18.10;99.90;;;;;;5097345;28;20104;-44
2021/06/06 05:00:47;;;;;;;54.42;42.92;;;18.10;99.90;;;;;;5097834;28;20019;-44
2021/06/06 05:03:14;;;;;;;63.70;49.08;;;18.20;99.90;;;;;;5100851;27;20067;-44
2021/06/06 05:05:40;;;;;;;55.40;45.30;;;18.20;99.90;;;;;;5097809;27;20527;-45
2021/06/06 05:08:06;;;;;;;60.38;46.13;;;18.20;99.90;;;;;;5097690;28;20024;-46
2021/06/06 05:10:37;;;;;;;54.65;44.90;;;18.20;99.90;;;;;;5096308;28;20028;-44
2021/06/06 05:13:03;;;;;;;49.40;41.58;;;18.20;99.90;;;;;;5088530;28;20024;-46
2021/06/06 05:15:29;;;;;;;58.22;46.33;;;18.20;99.90;;;;;;5087326;28;20028;-44
2021/06/06 05:17:55;;;;;;;66.15;49.15;;;18.30;99.90;;;;;;5088438;28;20028;-44
2021/06/06 05:20:30;;;;;;;58.15;46.13;;;18.30;99.90;;;;;;5087557;28;20040;-46
2021/06/06 05:22:56;;;;;;;66.75;50.15;;;18.30;99.90;;;;;;5088391;28;20028;-44
2021/06/06 05:25:22;;;;;;;61.70;47.67;;;18.30;99.90;;;;;;5089561;28;20034;-45
2021/06/06 05:27:48;;;;;;;53.92;44.47;;;18.30;99.90;;;;;;5096002;28;20028;-45
2021/06/06 05:30:18;;;;;;;56.95;46.90;;;18.40;99.90;;;;;;5100249;28;20036;-44
2021/06/06 05:32:44;;;;;;;;;;;18.30;99.90;;;;;;5104711;27;20465;-46
2021/06/06 05:35:10;;;;;;;57.08;44.88;;;18.30;99.90;;;;;;5098473;27;19982;-45
2021/06/06 05:37:36;;;;;;;57.78;46.42;;;18.40;99.90;;;;;;5089115;28;20028;-44
2021/06/06 05:40:03;;;;;;;56.05;44.28;;;18.40;99.90;;;;;;5090552;28;20039;-45
2021/06/06 05:42:29;;;;;;;66.22;52.50;;;18.40;99.90;;;;;;5103310;28;20114;-44
2021/06/06 05:44:54;;;;;;;61.97;49.00;;;18.40;99.90;;;;;;5108289;28;20161;-44
2021/06/06 05:47:20;;;;;;;55.08;45.25;;;18.40;99.90;;;;;;5108351;28;20027;-44
2021/06/06 05:49:46;;;;;;;62.88;48.75;;;18.40;99.90;;;;;;5107892;28;20111;-44
2021/06/06 05:52:11;;;;;;;65.75;51.33;;;18.40;99.90;;;;;;5108380;28;20036;-44
2021/06/06 05:54:37;;;;;;;60.33;49.20;;;18.40;99.90;;;;;;5108499;28;20389;-45
2021/06/06 05:57:03;;;;;;;61.40;48.10;;;18.30;99.90;;;;;;5098354;28;20051;-47
2021/06/06 05:59:28;;;;;;;57.03;46.85;;;18.30;99.90;;;;;;5102834;28;20583;-45
2021/06/06 06:01:54;;;;;;;57.63;45.10;;;18.20;99.90;;;;;;5100764;28;20037;-45
2021/06/06 06:04:19;;;;;;;62.58;49.03;;;18.20;99.90;;;;;;5100717;28;20035;-45
2021/06/06 06:06:45;;;;;;;55.92;44.33;;;18.20;99.90;;;;;;5104737;28;20081;-45
2021/06/06 06:09:10;;;;;;;57.75;43.15;;;18.10;99.90;;;;;;5104119;28;20039;-45
2021/06/06 06:11:36;;;;;;;57.42;44.20;;;18.10;99.90;;;;;;5099599;28;20068;-44
2021/06/06 06:14:02;;;;;;;52.13;40.25;;;18.20;99.90;;;;;;5087710;28;20501;-46
2021/06/06 06:16:35;;;;;;;52.50;40.15;;;18.10;99.90;;;;;;5087640;28;20196;-46
2021/06/06 06:19:02;;;;;;;51.15;40.38;;;18.10;99.90;;;;;;5087300;28;20024;-43
2021/06/06 06:21:28;;;;;;;54.65;42.42;;;18.20;99.90;;;;;;5087220;28;20024;-46
2021/06/06 06:23:54;;;;;;;57.95;42.03;;;18.20;99.90;;;;;;5098307;28;20046;-45
2021/06/06 06:26:21;;;;;;;53.78;41.22;;;18.20;99.90;;;;;;5096555;28;20027;-47
2021/06/06 06:28:47;;;;;;;54.50;41.90;;;18.20;99.90;;;;;;5097003;28;20019;-45
2021/06/06 06:31:14;;;;;;;57.03;41.88;;;18.20;99.90;;;;;;5099504;28;20488;-45
2021/06/06 06:33:40;;;;;;;59.72;44.63;;;18.20;99.90;;;;;;5105883;28;20602;-45
2021/06/06 06:36:07;;;;;;;62.63;43.10;;;18.10;99.90;;;;;;5094554;28;20018;-44
2021/06/06 06:38:33;;;;;;;55.22;39.90;;;18.10;99.90;;;;;;5087638;28;20031;-45
2021/06/06 06:40:59;;;;;;;54.08;40.22;;;18.10;99.90;;;;;;5089319;28;20144;-45
2021/06/06 06:43:25;;;;;;;57.83;41.28;;;18.10;99.90;;;;;;5089894;28;20031;-45
2021/06/06 06:45:50;;;;;;;49.25;36.70;;;18.20;99.90;;;;;;5106180;27;20015;-44
2021/06/06 06:48:20;;;;;;;47.25;35.70;;;18.20;99.90;;;;;;5123377;27;20031;-45
2021/06/06 06:50:47;;;;;;;50.75;37.85;;;18.20;99.90;;;;;;5131105;27;20015;-44
2021/06/06 06:53:13;;;;;;;40.90;33.42;;;18.20;99.90;;;;;;5132110;27;20115;-45
2021/06/06 06:55:39;;;;;;;51.63;38.65;;;18.30;99.90;;;;;;5123465;27;20126;-45
2021/06/06 06:58:06;;;;;;;48.25;35.85;;;18.30;99.90;;;;;;5093693;27;20111;-44
2021/06/06 07:00:37;;;;;;;48.38;36.83;;;18.30;99.90;;;;;;5087349;28;20032;-44
2021/06/06 07:03:02;;;;;;;47.25;35.15;;;18.30;99.90;;;;;;5117028;27;20555;-43
2021/06/06 07:05:28;;;;;;;48.65;34.28;;;18.30;99.90;;;;;;5130823;27;20308;-43
2021/06/06 07:07:54;;;;;;;52.83;39.45;;;18.40;99.90;;;;;;5130531;27;20092;-43
2021/06/06 07:10:22;;;;;;;55.55;39.50;;;18.40;99.90;;;;;;5090382;28;20540;-44
2021/06/06 07:12:47;;;;;;;50.58;37.03;;;18.40;99.90;;;;;;5092568;28;20055;-44
2021/06/06 07:15:14;;;;;;;49.33;35.85;;;18.40;99.90;;;;;;5101176;28;20051;-46
2021/06/06 07:17:41;;;;;;;54.20;39.92;;;18.40;99.90;;;;;;5102964;28;20489;-45
2021/06/06 07:20:10;;;;;;;49.30;35.50;;;18.40;99.90;;;;;;5111699;28;20020;-44
2021/06/06 07:22:36;;;;;;;50.88;38.03;;;18.40;99.90;;;;;;5112008;28;20024;-44
2021/06/06 07:25:07;;;;;;;52.63;38.20;;;18.40;99.90;;;;;;5111013;28;20110;-44
2021/06/06 07:27:35;;;;;;;51.10;36.00;;;18.50;99.90;;;;;;5110775;27;20193;-43
2021/06/06 07:30:01;;;;;;;53.42;37.97;;;18.50;99.90;;;;;;5110613;28;20027;-46
2021/06/06 07:32:27;;;;;;;50.28;35.42;;;18.50;99.90;;;;;;5118094;27;20108;-45
2021/06/06 07:34:52;;;;;;;48.13;35.33;;;18.50;99.90;;;;;;5127063;27;20503;-46
2021/06/06 07:37:18;;;;;;;54.25;38.53;;;18.50;99.90;;;;;;5131492;27;20106;-45
2021/06/06 07:39:44;;;;;;;50.05;35.10;;;18.50;99.90;;;;;;5131055;27;20030;-44
2021/06/06 07:42:14;;;;;;;55.72;38.63;;;18.50;99.90;;;;;;5131655;27;20027;-45
2021/06/06 07:44:40;;;;;;;49.87;35.50;;;18.50;99.90;;;;;;5131921;27;20537;-44
2021/06/06 07:47:08;;;;;;;46.65;33.70;;;18.40;99.90;;;;;;5131463;27;20023;-45
2021/06/06 07:49:34;;;;;;;50.05;37.13;;;18.50;99.90;;;;;;5130342;27;20023;-44
2021/06/06 07:52:00;;;;;;;51.83;36.25;;;18.50;99.90;;;;;;5131208;27;20106;-44
2021/06/06 07:54:26;;;;;;;54.75;37.53;;;18.60;99.90;;;;;;5128969;27;20106;-45
2021/06/06 07:56:53;;;;;;;49.00;32.83;;;18.50;99.90;;;;;;5131314;27;20038;-44
2021/06/06 07:59:18;;;;;;;48.90;35.00;;;18.50;99.90;;;;;;5130054;27;20294;-45
2021/06/06 08:01:44;;;;;;;52.33;35.45;;;18.50;99.90;;;;;;5129104;27;20380;-44
2021/06/06 08:04:09;;;;;;;46.25;32.78;;;18.50;99.90;;;;;;5116720;27;20497;-45
2021/06/06 08:06:35;;;;;;;50.47;33.17;;;18.40;99.90;;;;;;5122189;27;20056;-45
2021/06/06 08:09:00;;;;;;;50.92;32.60;;;18.40;99.90;;;;;;5130502;27;20122;-44
2021/06/06 08:11:26;;;;;;;42.90;30.92;;;18.40;99.90;;;;;;5129834;27;20034;-45
2021/06/06 08:13:52;;;;;;;40.53;29.17;;;18.30;99.90;;;;;;5130910;27;20023;-45
2021/06/06 08:16:19;;;;;;;43.22;29.48;;;18.30;99.90;;;;;;5130733;27;20487;-46
2021/06/06 08:18:46;;;;;;;43.80;29.27;;;18.20;99.90;;;;;;5131017;27;20027;-44
2021/06/06 08:21:11;;;;;;;60.58;36.22;;;18.10;99.90;;;;;;5129961;27;20026;-45
2021/06/06 08:23:37;;;;;;;61.60;37.22;;;18.10;99.90;;;;;;5130238;27;20027;-44
2021/06/06 08:26:04;;;;;;;52.70;34.85;;;18.00;99.90;;;;;;5128814;27;20391;-44
2021/06/06 08:28:31;;;;;;;65.25;37.75;;;18.00;99.90;;;;;;5130473;27;20449;-46
2021/06/06 08:31:00;;;;;;;53.00;32.25;;;17.90;99.90;;;;;;5128188;27;20118;-45
2021/06/06 08:33:29;;;;;;;64.22;38.35;;;17.90;99.90;;;;;;5130027;27;20019;-45
2021/06/06 08:35:58;;;;;;;62.53;37.65;;;17.90;99.90;;;;;;5117430;27;20015;-46
2021/06/06 08:38:25;;;;;;;68.63;39.47;;;18.00;99.90;;;;;;5089126;28;20024;-46
2021/06/06 08:41:09;;;;;;;65.03;39.95;;;17.90;99.90;;;;;;5088383;28;20591;-44
2021/06/06 08:43:56;;;;;;;71.88;43.58;;;17.90;99.90;;;;;;5089077;28;20526;-45
2021/06/06 08:46:24;;;;;;;70.72;40.10;;;17.80;99.90;;;;;;5089037;28;20024;-44
2021/06/06 08:48:50;;;;;;;77.80;42.42;;;17.90;99.90;;;;;;5087482;28;20031;-46
2021/06/06 08:51:47;;;;;;;85.65;44.50;;;17.90;99.90;;;;;;5087938;28;20117;-44
2021/06/06 08:54:24;;;;;;;85.78;46.00;;;18.00;99.90;;;;;;5089047;28;20089;-45
2021/06/06 08:57:02;;;;;;;83.13;46.17;;;17.90;99.90;;;;;;5089253;28;20028;-44
2021/06/06 08:59:38;;;;;;;87.60;45.42;;;18.00;99.90;;;;;;5087977;28;20027;-44
2021/06/06 09:02:47;;;;;;;90.93;46.30;;;18.00;99.90;;;;;;5090385;27;20178;-44
2021/06/06 09:05:26;;;;;;;100.90;50.05;;;18.00;99.90;;;;;;5103730;27;20373;-45
2021/06/06 09:07:53;;;;;;;99.15;47.83;;;17.90;99.90;;;;;;5098110;28;20384;-47
2021/06/06 09:10:32;;;;;;;98.60;49.63;;;17.90;99.90;;;;;;5096623;28;20110;-45
2021/06/06 09:13:00;;;;;;;104.15;51.10;;;17.90;99.90;;;;;;5097458;28;20469;-45
2021/06/06 09:15:27;;;;;;;96.70;46.38;;;17.90;99.90;;;;;;5098988;28;20128;-48
2021/06/06 09:17:56;;;;;;;88.78;47.45;;;17.90;99.90;;;;;;5098106;28;20106;-45
2021/06/06 09:20:39;;;;;;;105.20;50.93;;;17.90;99.90;;;;;;5096331;28;20081;-46
2021/06/06 09:23:26;;;;;;;107.25;51.13;;;17.90;99.90;;;;;;5096735;28;20095;-46
2021/06/06 09:26:12;;;;;;;103.97;55.30;;;17.80;99.90;;;;;;5098390;28;20028;-45
2021/06/06 09:28:40;;;;;;;96.80;47.65;;;17.80;99.90;;;;;;5099038;28;20020;-47
2021/06/06 09:31:11;;;;;;;104.90;49.50;;;17.90;99.90;;;;;;5098227;28;20031;-45
2021/06/06 09:33:46;;;;;;;101.63;51.28;;;17.90;99.90;;;;;;5099847;27;20439;-47
2021/06/06 09:36:32;;;;;;;99.38;48.80;;;17.90;99.90;;;;;;5098607;28;20590;-46
2021/06/06 09:39:01;;;;;;;92.47;47.47;;;18.00;99.90;;;;;;5098474;28;20036;-47
2021/06/06 09:41:26;;;;;;;81.90;42.03;;;17.90;99.90;;;;;;5097042;28;20068;-45
2021/06/06 09:44:10;;;;;;;95.10;48.65;;;18.00;99.90;;;;;;5097803;28;20020;-45
2021/06/06 09:46:48;;;;;;;92.38;44.65;;;18.00;99.90;;;;;;5098356;28;20023;-44
2021/06/06 09:49:37;;;;;;;80.75;44.50;;;18.00;99.90;;;;;;5097259;28;20040;-45
2021/06/06 09:52:40;;;;;;;85.03;44.85;;;18.00;99.90;;;;;;5099345;28;20433;-45
2021/06/06 09:55:28;;;;;;;83.40;45.50;;;18.10;99.90;;;;;;5099175;28;20016;-44
2021/06/06 09:58:13;;;;;;;75.78;40.08;;;18.10;99.90;;;;;;5098252;28;20635;-46
2021/06/06 10:00:44;;;;;;;83.60;43.65;;;18.10;99.90;;;;;;5098271;28;20016;-44
2021/06/06 10:03:28;;;;;;;89.22;47.50;;;18.10;99.90;;;;;;5101005;27;20028;-46
2021/06/06 10:06:08;;;;;;;74.78;40.83;;;18.00;99.90;;;;;;5099787;28;20111;-44
2021/06/06 10:08:34;;;;;;;71.47;39.80;;;18.00;99.90;;;;;;5097627;28;20024;-44
2021/06/06 10:11:15;;;;;;;78.22;41.05;;;18.10;99.90;;;;;;5098045;28;20180;-46
2021/06/06 10:13:48;;;;;;;67.82;38.55;;;18.10;99.90;;;;;;5098811;28;20077;-45
2021/06/06 10:16:30;;;;;;;76.57;40.60;;;18.10;99.90;;;;;;5097742;28;20012;-46
2021/06/06 10:18:57;;;;;;;65.95;36.95;;;18.10;99.90;;;;;;5096263;28;20020;-46
2021/06/06 10:21:29;;;;;;;63.20;36.80;;;18.20;99.90;;;;;;5093570;28;20488;-44
2021/06/06 10:23:59;;;;;;;67.97;38.45;;;18.20;99.90;;;;;;5093928;28;20117;-46
2021/06/06 10:26:33;;;;;;;64.32;36.35;;;18.20;99.90;;;;;;5096068;28;20598;-45
2021/06/06 10:29:28;;;;;;;67.70;40.85;;;18.20;99.90;;;;;;5095456;28;20501;-45
2021/06/06 10:31:59;;;;;;;55.10;33.20;;;18.10;99.90;;;;;;5095193;28;20588;-44
2021/06/06 10:34:27;;;;;;;57.13;33.58;;;18.10;99.90;;;;;;5096257;28;20093;-44
2021/06/06 10:36:53;;;;;;;60.85;38.10;;;18.10;99.90;;;;;;5095898;28;20094;-48
2021/06/06 10:39:39;;;;;;;57.03;35.28;;;18.10;99.90;;;;;;5090455;28;20024;-46
2021/06/06 10:42:22;;;;;;;64.00;38.28;;;18.10;99.90;;;;;;5092099;28;20081;-45
2021/06/06 10:45:06;;;;;;;65.63;36.05;;;18.10;99.90;;;;;;5091115;28;20401;-46
2021/06/06 10:47:58;;;;;;;68.47;39.67;;;18.10;99.90;;;;;;5095369;28;20059;-46
2021/06/06 10:50:32;;;;;;;70.28;40.00;;;18.00;99.90;;;;;;5096736;28;20073;-47
2021/06/06 10:53:26;;;;;;;68.47;37.67;;;17.90;99.90;;;;;;5096911;28;20058;-47
2021/06/06 10:56:13;;;;;;;72.30;39.50;;;17.90;99.90;;;;;;5107937;28;20039;-45
2021/06/06 10:58:57;;;;;;;72.60;40.97;;;17.80;99.90;;;;;;5094593;28;20044;-45
2021/06/06 11:01:44;;;;;;;74.38;40.95;;;17.80;99.90;;;;;;5096442;28;20036;-44
2021/06/06 11:04:19;;;;;;;75.10;42.85;;;17.80;99.90;;;;;;5097110;28;20108;-45
2021/06/06 11:06:48;;;;;;;79.40;43.90;;;17.70;99.90;;;;;;5094838;28;20024;-47
2021/06/06 11:09:31;;;;;;;76.25;42.65;;;17.80;99.90;;;;;;5085480;28;20270;-44
2021/06/06 11:11:58;;;;;;;74.50;42.08;;;17.80;99.90;;;;;;5087034;28;20466;-44
2021/06/06 11:14:46;;;;;;;72.43;38.83;;;17.80;99.90;;;;;;5087622;28;20035;-44
2021/06/06 11:17:33;;;;;;;80.65;43.35;;;17.80;99.90;;;;;;5088731;28;20024;-45
2021/06/06 11:20:11;;;;;;;73.40;41.10;;;17.80;99.90;;;;;;5087810;28;20438;-45
2021/06/06 11:22:38;;;;;;;69.72;40.58;;;17.70;99.90;;;;;;5087570;28;20091;-45
2021/06/06 11:25:07;;;;;;;68.25;38.65;;;17.70;99.90;;;;;;5089239;28;20020;-46
2021/06/06 11:28:00;;;;;;;68.40;39.05;;;17.80;99.90;;;;;;5088912;28;20107;-45
2021/06/06 11:30:27;;;;;;;82.72;44.10;;;17.80;99.90;;;;;;5092189;28;20016;-46
2021/06/06 11:33:01;;;;;;;76.60;41.25;;;17.80;99.90;;;;;;5092488;28;20024;-47
2021/06/06 11:35:36;;;;;;;72.80;39.45;;;17.80;99.90;;;;;;5094152;28;20273;-45
2021/06/06 11:38:26;;;;;;;77.80;39.60;;;17.80;99.90;;;;;;5095139;28;20099;-45
2021/06/06 11:41:25;;;;;;;79.80;41.15;;;17.80;99.90;;;;;;5105171;28;20562;-45
2021/06/06 11:44:13;;;;;;;78.00;39.20;;;17.80;99.90;;;;;;5099269;28;20126;-45
2021/06/06 11:46:52;;;;;;;75.93;41.58;;;17.80;99.90;;;;;;5100633;28;20024;-44
2021/06/06 11:49:34;;;;;;;76.53;41.13;;;17.80;99.90;;;;;;5098354;28;20521;-45
2021/06/06 11:52:29;;;;;;;75.18;41.15;;;17.90;99.90;;;;;;5100148;28;20500;-45
2021/06/06 11:55:01;;;;;;;84.30;44.42;;;17.80;99.90;;;;;;5090374;28;20576;-45
2021/06/06 11:57:33;;;;;;;91.13;46.95;;;17.80;99.90;;;;;;5098247;28;20024;-45
2021/06/06 12:00:29;;;;;;;87.57;45.80;;;17.80;99.90;;;;;;5092239;28;20032;-44
2021/06/06 12:02:55;;;;;;;87.20;45.45;;;17.80;99.90;;;;;;5093757;28;20032;-45
2021/06/06 12:05:29;;;;;;;84.15;46.08;;;17.80;99.90;;;;;;5103127;27;20015;-46
2021/06/06 12:08:06;;;;;;;81.70;43.72;;;17.80;99.90;;;;;;5107689;27;20026;-46
2021/06/06 12:10:34;;;;;;;93.78;48.08;;;17.80;99.90;;;;;;5092588;28;20081;-45
2021/06/06 12:13:02;;;;;;;91.70;47.53;;;17.80;99.90;;;;;;5089620;28;20040;-46
2021/06/06 12:15:39;;;;;;;101.00;50.25;;;17.90;99.90;;;;;;5089160;28;20072;-44
2021/06/06 12:18:16;;;;;;;81.80;44.35;;;17.80;99.90;;;;;;5117142;27;20012;-45
2021/06/06 12:20:58;;;;;;;77.15;41.67;;;17.90;99.90;;;;;;5128143;27;20027;-43
2021/06/06 12:23:35;;;;;;;98.93;47.30;;;17.90;99.90;;;;;;5094834;28;20036;-45
2021/06/06 12:26:29;;;;;;;80.43;43.10;;;18.00;99.90;;;;;;5098335;27;20486;-45
2021/06/06 12:28:56;;;;;;;85.22;45.58;;;18.00;99.90;;;;;;5101984;27;20032;-45
2021/06/06 12:31:47;;;;;;;84.15;43.88;;;18.00;99.90;;;;;;5109049;28;20039;-47
2021/06/06 12:34:30;;;;;;;86.60;43.38;;;18.00;99.90;;;;;;5100374;28;20043;-45
2021/06/06 12:37:04;;;;;;;78.10;41.53;;;17.90;99.90;;;;;;5108445;28;20507;-46
2021/06/06 12:39:30;;;;;;;76.22;40.92;;;18.00;99.90;;;;;;5109070;28;20031;-45
2021/06/06 12:41:59;;;;;;;76.43;41.17;;;18.00;99.90;;;;;;5104755;28;20040;-47
2021/06/06 12:44:37;;;;;;;80.30;40.60;;;18.10;99.90;;;;;;5098254;28;20112;-46
2021/06/06 12:47:07;;;;;;;79.82;41.60;;;18.10;99.90;;;;;;5099274;28;20020;-45
2021/06/06 12:49:42;;;;;;;67.55;38.80;;;18.20;99.90;;;;;;5097101;28;20409;-45
2021/06/06 12:52:38;;;;;;;70.45;39.85;;;18.20;99.90;;;;;;5097934;28;20032;-45